LFRD/DNR METAR and TAF weather

Enter ICAO airport designator
Station Type Date Time Source
LFRD METAR 2019/04/22 18:00 UTC NOAA

LFRD 221800Z AUTO 13005KT 090V160 CAVOK 19/09 Q1000 TEMPO VRB15G25KT SHRA BKN060TCU


Station Type Date Time Source
LFRD Decoded METAR 2019/04/22 18:00 UTC NOAA

Dinard, France (LFRD) 48-35N 002-04W 60M
Apr 22, 2019 - 02:00 PM EDT / 2019.04.22 1800 UTC
Wind: from the SE (130 degrees) at 6 MPH (5 KT) (direction variable):0
Visibility: greater than 7 mile(s):0
Weather: Towering cumulus clouds observed
Temperature: 66 F (19 C)
Dew Point: 48 F (9 C)
Relative Humidity: 52%
Pressure (altimeter): 29.53 in. Hg (1000 hPa)
ob: LFRD 221800Z AUTO 13005KT 090V160 CAVOK 19/09 Q1000 TEMPO VRB15G25KT SHRA BKN060TCU
cycle: 18

Station Type Date Time Source
LFRD TAF 2019/04/22 18:21 UTC NOAA

TAF LFRD 221700Z 2218/2318 15010KT CAVOK
BECMG 2218/2221 VRB05KT PROB30
TEMPO 2218/2222 VRB15G25KT 5000 SHRA BKN060TCU
BECMG 2300/2303 15010KT
TEMPO 2312/2318 5000 SHRA BKN050TCU PROB40
TEMPO 2315/2318 16015G30KT 3000 TSRA BKN030CB

Example: see airport list